• Join FlightAware (Why Join?)
  • Login
  • US Flag 
08:59AM EDT


 

Airport Tracker/Info


-or-


 

Live Flight TrackerFlight Track Log ✈ TAM3821 ✈ 19-May-2013 ✈ SBBR / BSB - SBGL / GIG

Flight Track Log - Related Links

Times and Time Zones

All times are in EDT time to prevent confusion due to time zone crossing. See the TAM3821 flight status page for this flight to view local times or setup timezone preferences in your user account.

Time Position Orientation Groundspeed Altitude Reporting Facility
EDT Latitude Longitude Course Direction KTS MPH feet Rate Location/Type
09:01AM -17.6297 -46.7684 148° Southeast  Level Estimated
09:02AM -17.7063 -46.7181 148° Southeast  Level Estimated
09:03AM -17.7830 -46.6679 148° Southeast  Level Estimated
09:04AM -17.8597 -46.6175 148° Southeast  Level Estimated
09:05AM -17.9363 -46.5672 148° Southeast  Level Estimated
09:06AM -18.0129 -46.5167 148° Southeast  Level Estimated
09:07AM -18.0896 -46.4663 148° Southeast  Level Estimated
09:08AM -18.1661 -46.4158 148° Southeast  Level Estimated
09:09AM -18.2427 -46.3652 148° Southeast  Level Estimated
09:10AM -18.3193 -46.3146 148° Southeast  Level Estimated
09:11AM -18.3959 -46.2640 148° Southeast  Level Estimated
09:12AM -18.4724 -46.2133 148° Southeast  Level Estimated
09:13AM -18.5490 -46.1626 148° Southeast  Level Estimated
09:14AM -18.6255 -46.1118 148° Southeast  Level Estimated
09:15AM -18.7020 -46.0610 148° Southeast  Level Estimated
09:16AM -18.7785 -46.0101 148° Southeast  Level Estimated
09:17AM -18.8550 -45.9592 148° Southeast  Level Estimated
09:18AM -18.9314 -45.9082 148° Southeast  Level Estimated
09:19AM -19.0079 -45.8572 148° Southeast  Level Estimated
09:20AM -19.0844 -45.8062 148° Southeast  Level Estimated
09:21AM -19.1608 -45.7551 148° Southeast  Level Estimated
09:22AM -19.2372 -45.7039 148° Southeast  Level Estimated
09:23AM -19.3136 -45.6527 148° Southeast  Level Estimated
09:24AM -19.3900 -45.6015 148° Southeast  Level Estimated
09:25AM -19.4663 -45.5502 148° Southeast  Level Estimated
09:26AM -19.5427 -45.4989 148° Southeast  Level Estimated
09:27AM -19.6190 -45.4475 148° Southeast  Level Estimated
09:28AM -19.6954 -45.3960 148° Southeast  Level Estimated
09:29AM -19.7717 -45.3445 148° Southeast  Level Estimated
09:30AM -19.8480 -45.2930 148° Southeast  Level Estimated
09:31AM -19.9243 -45.2414 148° Southeast  Level Estimated
09:32AM -20.0005 -45.1898 148° Southeast  Level Estimated
09:33AM -20.0768 -45.1381 148° Southeast  Level Estimated
09:34AM -20.1530 -45.0864 148° Southeast  Level Estimated
09:35AM -20.2292 -45.0346 147° Southeast  Level Estimated
09:36AM -20.3055 -44.9827 147° Southeast  Level Estimated
09:37AM -20.3816 -44.9308 147° Southeast  Level Estimated
09:38AM -20.4578 -44.8789 147° Southeast  Level Estimated
09:39AM -20.5340 -44.8269 147° Southeast  Level Estimated
09:40AM -20.6101 -44.7749 147° Southeast  Level Estimated
09:41AM -20.6863 -44.7228 147° Southeast  Level Estimated
09:42AM -20.7624 -44.6706 147° Southeast  Level Estimated
09:43AM -20.8385 -44.6184 147° Southeast  Level Estimated
09:44AM -20.9146 -44.5662 147° Southeast  Level Estimated
09:45AM -20.9906 -44.5139 147° Southeast  Level Estimated
09:46AM -21.0667 -44.4615 147° Southeast  Level Estimated
09:47AM -21.1427 -44.4091 147° Southeast  Level Estimated
09:48AM -21.2187 -44.3566 147° Southeast  Level Estimated
09:49AM -21.2947 -44.3041 147° Southeast  Level Estimated
09:50AM -21.3707 -44.2515 147° Southeast  Level Estimated
09:51AM -21.4467 -44.1989 147° Southeast  Level Estimated
09:52AM -21.5226 -44.1462 147° Southeast  Level Estimated
09:53AM -21.5986 -44.0935 147° Southeast  Level Estimated
09:54AM -21.6745 -44.0407 147° Southeast  Level Estimated
09:55AM -21.7504 -43.9879 147° Southeast  Level Estimated
09:56AM -21.8263 -43.9350 147° Southeast  Level Estimated
09:57AM -21.9022 -43.8820 147° Southeast  Level Estimated
09:58AM -21.9780 -43.8290 147° Southeast  Level Estimated
09:59AM -22.0539 -43.7759 147° Southeast  Level Estimated
10:00AM -22.1297 -43.7228 147° Southeast  Level Estimated
10:01AM -22.2055 -43.6696 147° Southeast  Level Estimated
10:02AM -22.2812 -43.6163 147° Southeast  Level Estimated
10:03AM -22.3570 -43.5630 147° Southeast  Level Estimated
10:04AM -22.4328 -43.5097 147° Southeast  Level Estimated
10:05AM -22.5085 -43.4562 147° Southeast  Level Estimated
10:06AM -22.5842 -43.4028 147° Southeast  Level Estimated
10:07AM -22.6599 -43.3492 147° Southeast  Level Estimated
10:08AM -22.7356 -43.2956 147° Southeast  Level Estimated
10:09AM -22.8089 -43.2436 147° Southeast  Level Estimated
10:10AM -22.8089 -43.2436 137° Southeast  Level Estimated
10:11AM -22.8089 -43.2436 137° Southeast  Level Estimated
10:12AM -22.8089 -43.2436 137° Southeast  Level Estimated
10:13AM -22.8089 -43.2436 137° Southeast  Level Estimated
10:14AM -22.8089 -43.2436 137° Southeast  Level Estimated
10:15AM -22.8089 -43.2436 137° Southeast  Level Estimated
10:16AM -22.8089 -43.2436 137° Southeast  Level Estimated
10:17AM -22.8089 -43.2436 137° Southeast  Level Estimated
10:18AM -22.8089 -43.2436 137° Southeast  Level Estimated